Time;durP1;ratioP1;P1;durP2;ratioP2;P2;SDS_P1;SDS_P2;PMS_P1;PMS_P2;Temp;Humidity;BMP_temperature;BMP_pressure;BME280_temperature;BME280_humidity;BME280_pressure;Samples;Min_cycle;Max_cycle;Signal;HPM_P1;HPM_P2
2022/05/18 00:02:23;;;;;;;2.17;1.97;;;13.80;99.90;;;;;;5284151;28;20357;-73
2022/05/18 00:04:57;;;;;;;5.47;2.63;;;13.90;99.90;;;;;;5250487;28;20040;-72
2022/05/18 00:07:30;;;;;;;5.00;2.25;;;13.80;99.90;;;;;;5282146;28;20244;-73
2022/05/18 00:10:05;;;;;;;2.30;2.07;;;13.70;99.90;;;;;;5282298;27;20027;-73
2022/05/18 00:12:44;;;;;;;4.07;2.60;;;13.70;99.90;;;;;;5270777;27;20244;-72
2022/05/18 00:15:17;;;;;;;3.10;2.25;;;13.60;99.90;;;;;;5244284;28;20026;-73
2022/05/18 00:17:52;;;;;;;3.10;2.17;;;13.60;99.90;;;;;;5245341;28;20477;-73
2022/05/18 00:20:24;;;;;;;3.38;2.80;;;13.60;99.90;;;;;;5262902;28;20611;-73
2022/05/18 00:22:57;;;;;;;2.55;2.33;;;13.50;99.90;;;;;;5275025;28;20370;-73
2022/05/18 00:25:36;;;;;;;2.60;2.40;;;13.50;99.90;;;;;;5278757;28;20015;-73
2022/05/18 00:28:10;;;;;;;2.67;2.40;;;13.40;99.90;;;;;;5281025;28;20556;-73
2022/05/18 00:30:44;;;;;;;4.25;2.60;;;13.40;99.90;;;;;;5262970;28;20500;-73
2022/05/18 00:33:15;;;;;;;3.10;2.30;;;13.50;99.90;;;;;;5282508;28;20022;-73
2022/05/18 00:35:49;;;;;;;3.15;2.85;;;13.50;99.90;;;;;;5270952;27;20475;-73
2022/05/18 00:38:20;;;;;;;2.83;2.50;;;13.40;99.90;;;;;;5287702;27;20335;-73
2022/05/18 00:40:55;;;;;;;2.00;1.90;;;13.30;99.90;;;;;;5277570;28;20028;-73
2022/05/18 00:43:28;;;;;;;2.55;2.35;;;13.30;99.90;;;;;;5281849;28;20184;-73
2022/05/18 00:46:06;;;;;;;2.78;2.50;;;13.40;99.90;;;;;;5264676;28;20026;-74
2022/05/18 00:48:38;;;;;;;3.42;2.78;;;13.40;99.90;;;;;;5261712;28;20034;-73
2022/05/18 00:51:34;;;;;;;2.40;2.20;;;13.50;99.90;;;;;;5256179;28;20024;-73
2022/05/18 00:54:28;;;;;;;2.85;2.13;;;13.50;99.90;;;;;;5284096;28;20022;-73
2022/05/18 00:57:08;;;;;;;4.28;2.35;;;13.50;99.90;;;;;;5264600;28;20385;-73
2022/05/18 01:00:06;;;;;;;3.13;2.83;;;13.60;99.90;;;;;;5280892;28;20028;-73
2022/05/18 01:02:46;;;;;;;2.55;2.35;;;13.50;99.90;;;;;;5272294;28;20302;-73
2022/05/18 01:05:25;;;;;;;2.65;2.25;;;13.40;99.90;;;;;;5267685;28;20351;-73
2022/05/18 01:07:58;;;;;;;2.40;2.20;;;13.40;99.90;;;;;;5254433;28;20442;-73
2022/05/18 01:10:30;;;;;;;4.32;3.08;;;13.30;99.90;;;;;;5298762;27;20029;-73
2022/05/18 01:13:04;;;;;;;3.63;2.40;;;13.30;99.90;;;;;;5281960;28;20025;-73
2022/05/18 01:15:35;;;;;;;;;;;13.30;99.90;;;;;;5282079;28;20531;-73
2022/05/18 01:18:12;;;;;;;3.63;2.17;;;13.30;99.90;;;;;;5282185;28;19906;-73
2022/05/18 01:20:50;;;;;;;3.67;2.63;;;13.30;99.90;;;;;;5248242;28;20505;-74
2022/05/18 01:23:49;;;;;;;2.83;2.40;;;13.20;99.90;;;;;;5282374;28;20023;-73
2022/05/18 01:26:40;;;;;;;4.03;3.00;;;13.10;99.90;;;;;;5281246;28;20327;-71
2022/05/18 01:29:16;;;;;;;2.97;2.67;;;13.10;99.90;;;;;;5260567;28;20020;-73
2022/05/18 01:31:59;;;;;;;2.60;2.40;;;13.00;99.90;;;;;;5280094;28;20020;-73
2022/05/18 01:34:37;;;;;;;3.65;2.58;;;13.00;99.90;;;;;;5282595;28;20034;-73
2022/05/18 01:37:13;;;;;;;3.13;2.47;;;12.90;99.90;;;;;;5264147;28;20202;-73
2022/05/18 01:39:53;;;;;;;6.85;3.08;;;12.90;99.90;;;;;;5282406;28;20018;-73
2022/05/18 01:42:38;;;;;;;5.05;1.95;;;12.90;99.90;;;;;;5264607;28;20016;-73
2022/05/18 01:45:13;;;;;;;3.05;2.75;;;12.90;99.90;;;;;;5264789;28;20015;-73
2022/05/18 01:47:44;;;;;;;2.85;2.60;;;12.90;99.90;;;;;;5252310;28;20024;-74
2022/05/18 01:50:31;;;;;;;2.42;2.22;;;12.80;99.90;;;;;;5270774;28;20023;-74
2022/05/18 01:53:05;;;;;;;2.90;2.65;;;12.80;99.90;;;;;;5260091;28;20035;-74
2022/05/18 01:55:42;;;;;;;2.70;2.42;;;12.70;99.90;;;;;;5231952;28;20032;-74
2022/05/18 01:58:18;;;;;;;2.63;2.08;;;12.70;99.90;;;;;;5278668;28;20031;-72
2022/05/18 02:00:51;;;;;;;2.72;2.53;;;12.60;99.90;;;;;;5279192;28;20458;-73
2022/05/18 02:03:25;;;;;;;2.20;2.03;;;12.60;99.90;;;;;;5281350;28;20891;-72
2022/05/18 02:06:00;;;;;;;3.53;2.78;;;12.60;99.90;;;;;;5256930;27;20045;-73
2022/05/18 02:08:34;;;;;;;2.08;1.88;;;12.60;99.90;;;;;;5269975;27;20019;-73
2022/05/18 02:11:11;;;;;;;3.08;2.72;;;12.60;99.90;;;;;;5259755;28;20034;-73
2022/05/18 02:13:48;;;;;;;4.53;2.38;;;12.60;99.90;;;;;;5280267;28;20019;-73
2022/05/18 02:16:20;;;;;;;2.60;2.40;;;12.50;99.90;;;;;;5262771;28;20446;-73
2022/05/18 02:18:53;;;;;;;2.83;2.63;;;12.50;99.90;;;;;;5280714;28;20030;-73
2022/05/18 02:21:25;;;;;;;9.75;3.05;;;12.50;99.90;;;;;;5277016;28;20014;-73
2022/05/18 02:24:01;;;;;;;3.08;2.72;;;12.50;99.90;;;;;;5243403;28;20028;-73
2022/05/18 02:26:32;;;;;;;3.15;2.85;;;12.50;99.90;;;;;;5265961;28;20025;-73
2022/05/18 02:29:05;;;;;;;2.80;2.25;;;12.50;99.90;;;;;;5227747;28;20035;-73
2022/05/18 02:31:36;;;;;;;3.17;2.88;;;12.50;99.90;;;;;;5261305;28;20026;-73
2022/05/18 02:34:08;;;;;;;3.45;3.10;;;12.50;99.90;;;;;;5257443;28;20031;-73
2022/05/18 02:36:42;;;;;;;8.38;2.38;;;12.50;99.90;;;;;;5293514;27;20023;-72
2022/05/18 02:39:13;;;;;;;3.00;1.80;;;12.60;99.90;;;;;;5263865;28;20023;-73
2022/05/18 02:41:47;;;;;;;3.22;2.83;;;12.60;99.90;;;;;;5253952;28;20093;-73
2022/05/18 02:44:21;;;;;;;2.53;2.33;;;12.50;99.90;;;;;;5280539;28;20027;-73
2022/05/18 02:46:57;;;;;;;3.08;2.72;;;12.50;99.90;;;;;;5280915;28;20023;-73
2022/05/18 02:49:32;;;;;;;2.00;1.88;;;12.40;99.90;;;;;;5280001;28;20027;-73
2022/05/18 02:52:04;;;;;;;2.25;2.13;;;12.40;99.90;;;;;;5262874;28;20030;-73
2022/05/18 02:57:25;;;;;;;4.40;2.90;;;12.40;99.90;;;;;;5257948;28;20462;-73
2022/05/18 02:59:56;;;;;;;2.67;2.10;;;12.40;99.90;;;;;;5260176;28;20010;-73
2022/05/18 03:02:28;;;;;;;4.05;2.40;;;12.30;99.90;;;;;;5265443;28;20026;-73
2022/05/18 03:04:59;;;;;;;3.30;2.42;;;12.30;99.90;;;;;;5269326;28;20040;-73
2022/05/18 03:07:33;;;;;;;2.80;1.80;;;12.20;99.90;;;;;;5279224;28;20015;-73
2022/05/18 03:10:10;;;;;;;2.50;2.30;;;12.20;99.90;;;;;;5296281;27;20525;-73
2022/05/18 03:12:43;;;;;;;4.57;2.70;;;12.10;99.90;;;;;;5280626;28;20023;-73
2022/05/18 03:15:15;;;;;;;2.33;2.13;;;12.00;99.90;;;;;;5261330;28;20087;-73
2022/05/18 03:17:46;;;;;;;3.17;2.60;;;11.90;99.90;;;;;;5279630;28;20306;-73
2022/05/18 03:26:08;;;;;;;2.58;2.17;;;11.90;99.90;;;;;;5274501;28;20544;-73
2022/05/18 03:28:47;;;;;;;4.22;2.47;;;11.90;99.90;;;;;;5279449;28;20023;-73
2022/05/18 03:31:19;;;;;;;3.47;3.10;;;11.90;99.90;;;;;;5262333;28;20026;-73
2022/05/18 03:33:51;;;;;;;2.53;2.08;;;11.90;99.90;;;;;;5280084;28;20026;-73
2022/05/18 03:36:23;;;;;;;5.65;2.47;;;11.80;99.90;;;;;;5248174;28;20024;-73
2022/05/18 03:38:57;;;;;;;3.35;2.67;;;11.80;99.90;;;;;;5283879;28;20457;-73
2022/05/18 03:41:30;;;;;;;3.97;2.72;;;11.80;99.90;;;;;;5283708;28;20018;-73
2022/05/18 03:44:05;;;;;;;2.67;2.47;;;11.80;99.90;;;;;;5283590;28;20369;-73
2022/05/18 03:46:39;;;;;;;3.63;2.95;;;11.80;99.90;;;;;;5283580;28;20012;-73
2022/05/18 03:49:10;;;;;;;2.92;2.47;;;11.90;99.90;;;;;;5283549;28;20016;-74
2022/05/18 03:51:42;;;;;;;3.55;2.42;;;12.00;99.90;;;;;;5247594;28;20031;-72
2022/05/18 03:54:13;;;;;;;3.53;2.42;;;12.00;99.90;;;;;;5265342;28;20026;-72
2022/05/18 03:56:44;;;;;;;2.75;2.50;;;12.10;99.90;;;;;;5283456;28;20450;-73
2022/05/18 03:59:18;;;;;;;4.45;2.50;;;12.20;99.90;;;;;;5264973;28;20028;-72
2022/05/18 04:01:52;;;;;;;4.53;2.47;;;12.30;99.90;;;;;;5265612;28;20030;-72
2022/05/18 04:04:23;;;;;;;4.25;3.08;;;12.30;99.90;;;;;;5271883;27;20029;-74
2022/05/18 04:06:54;;;;;;;3.45;2.45;;;12.40;99.90;;;;;;5268331;28;20446;-73
2022/05/18 04:09:29;;;;;;;2.42;2.15;;;12.50;99.90;;;;;;5294370;27;20034;-74
2022/05/18 04:12:06;;;;;;;2.92;2.72;;;12.60;99.90;;;;;;5271943;28;20024;-74
2022/05/18 04:14:37;;;;;;;2.92;2.50;;;12.80;99.90;;;;;;5264802;28;20032;-73
2022/05/18 04:17:16;;;;;;;5.72;2.97;;;13.00;99.90;;;;;;5283587;28;20011;-73
2022/05/18 04:19:47;;;;;;;4.70;2.42;;;13.20;99.90;;;;;;5282287;28;20020;-73
2022/05/18 04:22:26;;;;;;;3.85;2.22;;;13.30;99.90;;;;;;5281613;27;20011;-73
2022/05/18 04:25:01;;;;;;;5.90;2.50;;;13.50;99.90;;;;;;5282167;28;20026;-73
2022/05/18 04:27:32;;;;;;;2.80;2.60;;;13.70;99.90;;;;;;5284065;28;20451;-73
2022/05/18 04:30:07;;;;;;;5.75;2.08;;;13.90;99.90;;;;;;5273219;28;20016;-72
2022/05/18 04:32:41;;;;;;;2.90;2.17;;;14.20;99.90;;;;;;5247559;28;20018;-73
2022/05/18 04:35:15;;;;;;;2.50;2.30;;;14.40;99.90;;;;;;5267062;28;20609;-72
2022/05/18 04:37:47;;;;;;;2.47;1.85;;;14.50;99.90;;;;;;5304488;27;20011;-73
2022/05/18 04:40:24;;;;;;;5.55;2.65;;;14.60;99.90;;;;;;5267584;27;20038;-73
2022/05/18 04:42:56;;;;;;;2.33;2.13;;;14.70;99.90;;;;;;5277163;28;20008;-73
2022/05/18 04:45:38;;;;;;;2.55;2.30;;;14.70;99.90;;;;;;5261827;28;20004;-73
2022/05/18 04:48:15;;;;;;;3.50;2.60;;;14.90;99.90;;;;;;5229429;28;20550;-71
2022/05/18 04:50:51;;;;;;;3.72;3.30;;;14.90;99.90;;;;;;5277845;28;20030;-73
2022/05/18 04:53:28;;;;;;;2.92;2.22;;;15.00;99.90;;;;;;5265452;28;20381;-74
2022/05/18 04:56:04;;;;;;;3.10;2.42;;;15.10;99.90;;;;;;5265005;28;20016;-73
2022/05/18 04:58:35;;;;;;;3.63;2.22;;;15.10;99.90;;;;;;5280987;28;20458;-72
2022/05/18 05:01:10;;;;;;;6.25;2.97;;;14.90;99.90;;;;;;5282310;28;20569;-72
2022/05/18 05:03:42;;;;;;;2.35;2.03;;;15.00;99.90;;;;;;5280692;28;20030;-73
2022/05/18 05:06:16;;;;;;;3.42;2.42;;;15.10;99.90;;;;;;5257999;28;20052;-74
2022/05/18 05:08:48;;;;;;;2.58;2.33;;;15.20;99.90;;;;;;5267320;27;20023;-73
2022/05/18 05:11:23;;;;;;;2.83;2.33;;;15.10;99.90;;;;;;5276880;28;20106;-73
2022/05/18 05:13:57;;;;;;;4.78;2.75;;;15.10;99.90;;;;;;5282745;28;20012;-72
2022/05/18 05:16:29;;;;;;;3.30;3.00;;;15.10;99.90;;;;;;5263831;28;20404;-72
2022/05/18 05:19:01;;;;;;;7.07;2.08;;;15.20;99.90;;;;;;5281112;28;20023;-75
2022/05/18 05:21:36;;;;;;;4.75;2.72;;;15.20;99.90;;;;;;5281068;28;20511;-73
2022/05/18 05:24:10;;;;;;;7.78;2.33;;;15.30;99.90;;;;;;5281962;28;20338;-73
2022/05/18 05:26:41;;;;;;;;;;;15.40;99.90;;;;;;5282674;28;20030;-73
2022/05/18 05:29:14;;;;;;;2.55;2.22;;;15.50;99.90;;;;;;5281911;28;19919;-71
2022/05/18 05:31:45;;;;;;;3.40;2.35;;;15.50;99.90;;;;;;5263927;28;20024;-73
2022/05/18 05:34:16;;;;;;;2.92;2.58;;;15.50;99.90;;;;;;5282728;28;20012;-74
2022/05/18 05:36:47;;;;;;;4.32;2.55;;;15.30;99.90;;;;;;5278847;27;20019;-73
2022/05/18 05:39:22;;;;;;;2.88;2.17;;;15.40;99.90;;;;;;5304137;27;20027;-73
2022/05/18 05:41:54;;;;;;;3.22;2.42;;;15.50;99.90;;;;;;5290156;27;20026;-71
2022/05/18 05:44:26;;;;;;;2.92;2.60;;;15.60;99.90;;;;;;5283350;28;20022;-73
2022/05/18 05:47:02;;;;;;;3.00;2.30;;;15.80;99.90;;;;;;5264169;28;20032;-73
2022/05/18 05:49:34;;;;;;;4.07;2.25;;;15.70;99.90;;;;;;5281044;28;20034;-73
2022/05/18 05:52:10;;;;;;;2.78;2.30;;;15.60;99.90;;;;;;5254989;28;20019;-74
2022/05/18 05:54:44;;;;;;;3.42;2.80;;;15.50;99.90;;;;;;5262868;28;20107;-72
2022/05/18 05:57:15;;;;;;;3.35;2.63;;;15.60;99.90;;;;;;5259616;28;20012;-73
2022/05/18 05:59:51;;;;;;;6.00;2.78;;;15.60;99.90;;;;;;5281266;28;20019;-72
2022/05/18 06:02:26;;;;;;;4.18;3.00;;;15.80;99.90;;;;;;5247027;28;20043;-73
2022/05/18 06:05:03;;;;;;;2.35;1.90;;;15.70;99.90;;;;;;5269848;28;20148;-72
2022/05/18 06:07:35;;;;;;;7.43;2.50;;;15.80;99.90;;;;;;5280619;28;20026;-73
2022/05/18 06:10:06;;;;;;;2.80;2.40;;;15.80;99.90;;;;;;5259384;27;20091;-73
2022/05/18 06:12:43;;;;;;;6.72;2.88;;;15.80;99.90;;;;;;5212452;28;20023;-73
2022/05/18 06:15:17;;;;;;;2.88;2.45;;;15.80;99.90;;;;;;5235088;27;20028;-71
2022/05/18 06:17:54;;;;;;;3.95;2.85;;;16.10;99.90;;;;;;5269600;28;20018;-73
2022/05/18 06:20:29;;;;;;;3.47;2.70;;;16.30;99.90;;;;;;5271691;28;20036;-73
2022/05/18 06:23:06;;;;;;;2.65;2.42;;;16.50;99.90;;;;;;5254535;28;20023;-74
2022/05/18 06:25:40;;;;;;;3.47;2.67;;;16.20;99.90;;;;;;5267748;28;20024;-74
2022/05/18 06:28:12;;;;;;;3.28;2.65;;;16.30;99.90;;;;;;5273420;28;20023;-74
2022/05/18 06:30:44;;;;;;;3.40;2.58;;;16.40;99.90;;;;;;5286241;28;20038;-72
2022/05/18 06:33:15;;;;;;;3.97;2.75;;;16.60;99.90;;;;;;5286729;28;20015;-72
2022/05/18 06:35:50;;;;;;;2.25;2.08;;;16.40;99.90;;;;;;5287742;27;20007;-74
2022/05/18 06:38:27;;;;;;;4.25;2.15;;;16.70;99.90;;;;;;5280843;28;20443;-73
2022/05/18 06:43:54;;;;;;;3.58;2.40;;;18.00;99.90;;;;;;5260386;28;20470;-74
2022/05/18 06:46:31;;;;;;;6.25;2.63;;;18.40;99.90;;;;;;5265211;28;20023;-74
2022/05/18 06:49:11;;;;;;;3.00;2.15;;;18.00;99.90;;;;;;5268524;28;20019;-73
2022/05/18 06:51:44;;;;;;;4.60;3.00;;;18.20;99.90;;;;;;5267442;28;20046;-73
2022/05/18 06:54:16;;;;;;;2.90;2.42;;;18.70;99.90;;;;;;5258217;28;20020;-73
2022/05/18 06:56:49;;;;;;;3.08;1.95;;;18.50;99.90;;;;;;5258636;28;20030;-73
2022/05/18 06:59:20;;;;;;;2.70;1.95;;;18.80;99.90;;;;;;5260397;28;20019;-73
2022/05/18 07:01:54;;;;;;;4.40;2.85;;;19.20;99.90;;;;;;5265997;28;20020;-73
2022/05/18 07:04:25;;;;;;;2.95;2.55;;;18.10;99.90;;;;;;5245247;28;20016;-73
2022/05/18 07:06:59;;;;;;;4.28;2.72;;;18.40;99.90;;;;;;5270149;28;20020;-73
2022/05/18 07:09:31;;;;;;;2.45;2.03;;;18.50;99.90;;;;;;5268258;28;20019;-73
2022/05/18 07:12:06;;;;;;;2.75;2.38;;;19.00;99.90;;;;;;5257199;28;20027;-73
2022/05/18 07:14:37;;;;;;;5.30;3.05;;;18.60;99.90;;;;;;5273859;28;20033;-73
2022/05/18 07:17:09;;;;;;;4.05;2.55;;;18.90;99.90;;;;;;5254557;28;20478;-73
2022/05/18 07:19:40;;;;;;;3.65;2.30;;;19.10;99.90;;;;;;5260092;28;20044;-73
2022/05/18 07:22:12;;;;;;;2.53;2.30;;;18.70;99.90;;;;;;5248974;28;20030;-73
2022/05/18 07:24:43;;;;;;;2.33;1.98;;;19.00;99.90;;;;;;5224802;28;20045;-73
2022/05/18 07:27:18;;;;;;;4.63;2.47;;;19.60;99.90;;;;;;5245348;28;20044;-73
2022/05/18 07:29:57;;;;;;;2.20;2.00;;;20.00;99.90;;;;;;5275436;28;20379;-74
2022/05/18 07:32:31;;;;;;;3.40;2.95;;;20.80;99.90;;;;;;5276470;28;20023;-74
2022/05/18 07:35:03;;;;;;;3.03;2.20;;;21.20;99.90;;;;;;5262289;28;20309;-73
2022/05/18 07:37:37;;;;;;;3.70;2.70;;;20.70;99.90;;;;;;5275334;28;20035;-75
2022/05/18 07:40:09;;;;;;;2.42;2.13;;;20.90;99.90;;;;;;5276112;28;20023;-74
2022/05/18 07:42:41;;;;;;;4.85;2.55;;;20.90;99.90;;;;;;5269710;28;20027;-73
2022/05/18 07:45:13;;;;;;;3.60;2.30;;;21.40;99.90;;;;;;5275183;28;20027;-74
2022/05/18 07:47:50;;;;;;;3.47;2.38;;;22.10;99.90;;;;;;5242523;28;20547;-75
2022/05/18 07:50:24;;;;;;;3.13;2.30;;;21.60;99.90;;;;;;5255528;28;20367;-76
2022/05/18 07:52:58;;;;;;;;;;;22.30;99.90;;;;;;5276498;28;20027;-76
2022/05/18 07:55:30;;;;;;;3.03;2.28;;;23.00;99.90;;;;;;5259997;28;19906;-75
2022/05/18 07:58:09;;;;;;;2.45;1.98;;;22.90;99.90;;;;;;5278306;28;20038;-75
2022/05/18 08:00:44;;;;;;;3.10;2.33;;;23.20;99.90;;;;;;5259063;28;20039;-75
2022/05/18 08:03:18;;;;;;;5.57;2.70;;;23.00;99.90;;;;;;5256870;28;20026;-75
2022/05/18 08:05:49;;;;;;;6.05;2.92;;;23.10;99.90;;;;;;5262437;28;20058;-75
2022/05/18 08:08:22;;;;;;;3.75;2.55;;;23.50;99.90;;;;;;5269211;28;20024;-75
2022/05/18 08:16:34;;;;;;;3.90;2.20;;;23.60;99.90;;;;;;5263005;28;20584;-76
2022/05/18 08:19:12;;;;;;;4.95;2.58;;;22.90;99.90;;;;;;5278106;28;20439;-75
2022/05/18 08:21:47;;;;;;;2.60;2.13;;;22.80;99.90;;;;;;5280638;28;20018;-75
2022/05/18 08:24:18;;;;;;;4.45;2.28;;;23.10;99.90;;;;;;5264042;28;20034;-75
2022/05/18 08:26:50;;;;;;;3.05;2.10;;;23.20;99.90;;;;;;5269858;28;20028;-75
2022/05/18 08:29:24;;;;;;;3.08;1.95;;;23.10;99.90;;;;;;5261769;28;20024;-75
2022/05/18 08:31:59;;;;;;;3.80;2.20;;;23.00;99.90;;;;;;5277155;28;20020;-75
2022/05/18 08:34:30;;;;;;;4.57;2.50;;;23.50;99.90;;;;;;5277827;28;20037;-75
2022/05/18 08:37:04;;;;;;;4.75;2.15;;;22.90;99.90;;;;;;5288067;27;20019;-75
2022/05/18 08:39:36;;;;;;;3.60;2.17;;;23.20;99.90;;;;;;5276457;28;20066;-75
2022/05/18 08:42:10;;;;;;;2.92;1.70;;;23.00;99.90;;;;;;5279976;28;21177;-75
2022/05/18 08:44:44;;;;;;;2.22;2.00;;;23.30;99.90;;;;;;5280968;28;20034;-76
2022/05/18 08:47:25;;;;;;;3.42;1.95;;;23.50;99.90;;;;;;5280914;28;20015;-75
2022/05/18 08:50:03;;;;;;;2.90;2.13;;;23.80;99.90;;;;;;5276754;28;20430;-74
2022/05/18 08:52:58;;;;;;;2.80;1.83;;;23.90;99.90;;;;;;5274570;28;20027;-74
2022/05/18 08:55:47;;;;;;;2.97;2.15;;;23.80;99.90;;;;;;5263114;28;20028;-74
2022/05/18 08:58:48;;;;;;;6.05;2.15;;;23.60;99.90;;;;;;5275705;28;20024;-73
2022/05/18 09:01:36;;;;;;;2.47;1.83;;;23.30;99.90;;;;;;5281001;28;20024;-75
2022/05/18 09:04:16;;;;;;;1.80;1.70;;;21.90;99.90;;;;;;5263072;28;20034;-75
2022/05/18 09:06:48;;;;;;;6.05;1.83;;;21.90;99.90;;;;;;5269810;27;20520;-75
2022/05/18 09:12:21;;;;;;;4.20;1.70;;;23.40;99.90;;;;;;5279845;28;20221;-74
2022/05/18 09:14:59;;;;;;;4.32;1.77;;;24.00;99.90;;;;;;5277916;28;20042;-74
2022/05/18 09:17:31;;;;;;;2.50;1.88;;;24.40;99.90;;;;;;5262803;28;20531;-74
2022/05/18 09:20:20;;;;;;;5.88;1.77;;;24.30;99.90;;;;;;5263629;28;20099;-74
2022/05/18 09:23:07;;;;;;;2.05;1.80;;;24.20;99.90;;;;;;5275664;28;20016;-74
2022/05/18 09:25:57;;;;;;;2.97;1.85;;;24.00;99.90;;;;;;5248050;28;20023;-75
2022/05/18 09:28:53;;;;;;;4.93;1.95;;;23.50;99.90;;;;;;5281651;28;20007;-74
2022/05/18 09:31:42;;;;;;;2.17;1.90;;;24.90;99.90;;;;;;5264189;28;20039;-74
2022/05/18 09:34:22;;;;;;;3.47;1.77;;;23.10;99.90;;;;;;5264400;28;20004;-74
2022/05/18 09:37:10;;;;;;;2.33;1.70;;;22.00;99.90;;;;;;5273079;28;20026;-75
2022/05/18 09:39:52;;;;;;;3.33;1.25;;;21.80;99.90;;;;;;5281288;28;20023;-75
2022/05/18 09:42:28;;;;;;;2.35;1.65;;;21.60;99.90;;;;;;5282318;28;20020;-75
2022/05/18 09:45:07;;;;;;;2.92;1.60;;;21.00;99.90;;;;;;5282439;28;20011;-75
2022/05/18 09:47:52;;;;;;;1.40;1.20;;;22.40;99.90;;;;;;5282167;28;20393;-75
2022/05/18 09:50:28;;;;;;;3.22;1.83;;;23.40;99.90;;;;;;5282226;28;20035;-75
2022/05/18 09:53:02;;;;;;;3.75;1.50;;;24.30;99.90;;;;;;5277388;28;20480;-74
2022/05/18 09:55:34;;;;;;;2.23;1.40;;;25.10;99.90;;;;;;5279747;28;20567;-76
2022/05/18 09:58:08;;;;;;;2.72;1.00;;;25.60;99.90;;;;;;5277008;28;20515;-73
2022/05/18 10:00:39;;;;;;;2.92;1.10;;;25.50;99.90;;;;;;5280162;28;20030;-75
2022/05/18 10:09:17;;;;;;;1.20;0.90;;;25.50;99.90;;;;;;5277934;27;20015;-75
2022/05/18 10:11:48;;;;;;;1.10;1.00;;;26.10;99.90;;;;;;5276088;28;20049;-75
2022/05/18 10:14:32;;;;;;;1.25;1.15;;;25.70;99.90;;;;;;5282406;28;20012;-74
2022/05/18 10:17:09;;;;;;;1.30;1.20;;;25.90;99.90;;;;;;5270905;28;20339;-75
2022/05/18 10:19:48;;;;;;;1.88;1.10;;;26.50;99.90;;;;;;5279707;28;20031;-75
2022/05/18 10:22:26;;;;;;;0.93;0.73;;;24.80;99.90;;;;;;5277435;28;20178;-73
2022/05/18 10:25:24;;;;;;;1.35;0.90;;;25.50;99.90;;;;;;5279331;28;20446;-75
2022/05/18 10:27:56;;;;;;;1.50;1.23;;;24.50;99.90;;;;;;5259982;28;20203;-75
2022/05/18 10:30:37;;;;;;;1.25;1.13;;;24.40;99.90;;;;;;5274701;28;20035;-75
2022/05/18 10:33:34;;;;;;;1.23;1.10;;;26.20;99.90;;;;;;5256449;28;20015;-74
2022/05/18 10:36:10;;;;;;;0.77;0.73;;;27.40;99.90;;;;;;5273176;28;20019;-74
2022/05/18 10:38:53;;;;;;;0.85;0.85;;;28.80;99.90;;;;;;5271703;28;20012;-75
2022/05/18 10:41:35;;;;;;;1.05;0.95;;;28.60;99.90;;;;;;5276667;28;20115;-75
2022/05/18 10:44:18;;;;;;;1.77;1.05;;;28.10;99.90;;;;;;5281182;28;20119;-75
2022/05/18 10:46:53;;;;;;;1.92;1.10;;;28.70;99.90;;;;;;5279342;28;20081;-73
2022/05/18 10:49:30;;;;;;;1.45;1.15;;;25.90;99.90;;;;;;5256037;28;20034;-75
2022/05/18 10:52:17;;;;;;;0.80;0.52;;;26.80;99.90;;;;;;5280022;28;20038;-75
2022/05/18 10:54:59;;;;;;;1.08;0.70;;;26.30;99.90;;;;;;5261654;28;20026;-75
2022/05/18 10:57:40;;;;;;;0.95;0.95;;;28.00;99.90;;;;;;5279044;28;20023;-75
2022/05/18 11:00:15;;;;;;;1.20;1.10;;;27.60;99.90;;;;;;5280676;28;20023;-75
2022/05/18 11:03:21;;;;;;;0.77;0.70;;;27.50;99.90;;;;;;5266151;28;20028;-74
2022/05/18 11:06:19;;;;;;;1.02;0.77;;;27.60;99.90;;;;;;5264563;28;20050;-74
2022/05/18 11:08:55;;;;;;;1.50;1.10;;;29.20;97.20;;;;;;5263807;28;20031;-76
2022/05/18 11:11:44;;;;;;;1.95;0.98;;;29.20;99.80;;;;;;5269237;28;20020;-74
2022/05/18 11:14:21;;;;;;;2.13;0.90;;;30.90;97.80;;;;;;5270547;28;20028;-75
2022/05/18 11:17:05;;;;;;;3.28;0.90;;;29.30;97.40;;;;;;5264715;28;20398;-74
2022/05/18 11:19:57;;;;;;;0.98;0.75;;;29.60;96.60;;;;;;5279370;28;20027;-73
2022/05/18 11:22:37;;;;;;;0.93;0.85;;;29.60;97.00;;;;;;5280352;28;20355;-74
2022/05/18 11:25:21;;;;;;;0.80;0.63;;;31.30;95.20;;;;;;5263386;28;20028;-74
2022/05/18 11:28:00;;;;;;;1.60;0.98;;;30.60;94.70;;;;;;5258279;28;20016;-75
2022/05/18 11:30:57;;;;;;;1.17;1.05;;;30.10;94.70;;;;;;5257727;28;20027;-73
2022/05/18 11:33:44;;;;;;;1.20;1.10;;;29.00;94.70;;;;;;5263308;28;20008;-73
2022/05/18 11:36:40;;;;;;;1.00;0.90;;;28.50;95.50;;;;;;5279824;28;20031;-74
2022/05/18 11:39:33;;;;;;;1.60;1.23;;;30.70;96.20;;;;;;5257966;28;20038;-74
2022/05/18 11:42:35;;;;;;;1.52;1.00;;;30.20;93.90;;;;;;5265889;28;20008;-75
2022/05/18 11:45:27;;;;;;;1.70;1.10;;;29.70;94.30;;;;;;5278579;28;20026;-73
2022/05/18 11:48:02;;;;;;;0.95;0.85;;;30.50;93.90;;;;;;5279093;28;20042;-74
2022/05/18 11:50:51;;;;;;;0.70;0.70;;;30.50;92.30;;;;;;5269888;28;20342;-75
2022/05/18 11:53:56;;;;;;;1.17;0.88;;;31.70;92.40;;;;;;5259048;28;20039;-75
2022/05/18 11:56:50;;;;;;;1.23;0.88;;;32.50;91.60;;;;;;5274811;28;20034;-75
2022/05/18 12:00:01;;;;;;;1.02;0.93;;;31.90;90.40;;;;;;5284083;28;20033;-75
2022/05/18 12:02:50;;;;;;;0.90;0.90;;;30.90;91.60;;;;;;5275206;28;20019;-76
2022/05/18 12:05:28;;;;;;;1.25;0.82;;;29.10;92.60;;;;;;5270966;28;20050;-73
2022/05/18 12:08:26;;;;;;;2.05;1.00;;;27.30;93.50;;;;;;5255003;28;20062;-75
2022/05/18 12:11:26;;;;;;;1.10;0.98;;;27.20;93.30;;;;;;5254079;28;20027;-73
2022/05/18 12:14:06;;;;;;;0.65;0.65;;;27.90;92.00;;;;;;5278773;28;20031;-74
2022/05/18 12:16:48;;;;;;;1.00;0.90;;;28.70;92.30;;;;;;5276825;28;20026;-74
2022/05/18 12:19:28;;;;;;;0.93;0.70;;;29.60;92.10;;;;;;5261154;28;20024;-74
2022/05/18 12:22:10;;;;;;;0.82;0.60;;;27.70;91.90;;;;;;5260890;28;20012;-74
2022/05/18 12:24:45;;;;;;;0.70;0.70;;;28.40;93.50;;;;;;5279135;28;20458;-74
2022/05/18 12:27:19;;;;;;;1.55;0.73;;;29.90;90.50;;;;;;5262454;27;20020;-74
2022/05/18 12:29:53;;;;;;;1.13;0.70;;;29.50;90.50;;;;;;5260442;28;20028;-74
2022/05/18 12:32:25;;;;;;;;;;;28.00;91.10;;;;;;5273785;28;20000;-74
2022/05/18 12:35:14;;;;;;;0.70;0.70;;;28.20;90.90;;;;;;5281713;28;19908;-74
2022/05/18 12:38:19;;;;;;;0.88;0.73;;;29.30;90.50;;;;;;5266964;28;20427;-75
2022/05/18 12:40:56;;;;;;;1.33;0.82;;;31.50;88.10;;;;;;5274385;28;20544;-75
2022/05/18 12:43:39;;;;;;;0.93;0.88;;;31.30;88.30;;;;;;5263360;27;20053;-74
2022/05/18 12:46:16;;;;;;;0.70;0.70;;;31.50;85.10;;;;;;5267668;28;20028;-74
2022/05/18 12:49:04;;;;;;;0.70;0.70;;;29.80;86.70;;;;;;5271644;28;20028;-76
2022/05/18 12:51:52;;;;;;;0.65;0.65;;;30.40;87.00;;;;;;5271452;28;20019;-76
2022/05/18 12:54:48;;;;;;;0.80;0.80;;;30.10;85.20;;;;;;5240027;28;20251;-74
2022/05/18 12:57:47;;;;;;;0.80;0.80;;;31.50;84.80;;;;;;5271813;28;20020;-74
2022/05/18 13:00:50;;;;;;;1.70;0.80;;;31.60;84.10;;;;;;5271621;28;20015;-74
2022/05/18 13:03:50;;;;;;;0.82;0.63;;;31.20;83.00;;;;;;5254527;28;20032;-74
2022/05/18 13:06:49;;;;;;;0.70;0.70;;;30.70;84.10;;;;;;5229026;28;20036;-74
2022/05/18 13:09:36;;;;;;;0.70;0.70;;;30.70;81.70;;;;;;5274076;27;20024;-74
2022/05/18 13:12:23;;;;;;;0.50;0.50;;;29.90;82.40;;;;;;5256297;28;20030;-74
2022/05/18 13:15:04;;;;;;;0.70;0.70;;;31.60;80.30;;;;;;5278024;28;20040;-74
2022/05/18 13:18:28;;;;;;;0.77;0.75;;;31.80;78.70;;;;;;5269356;28;20497;-74
2022/05/18 13:21:06;;;;;;;0.77;0.77;;;31.30;79.70;;;;;;5175787;28;20164;-73
2022/05/18 13:24:27;;;;;;;0.77;0.77;;;32.10;78.40;;;;;;5166060;28;20029;-74
2022/05/18 13:27:17;;;;;;;0.80;0.80;;;32.30;78.80;;;;;;5188567;28;20037;-74
2022/05/18 13:29:53;;;;;;;2.15;0.60;;;33.40;76.20;;;;;;5189192;28;21421;-74
2022/05/18 13:32:28;;;;;;;0.60;0.60;;;33.20;75.20;;;;;;5179449;28;20464;-74
2022/05/18 13:35:21;;;;;;;0.93;0.70;;;31.60;76.10;;;;;;5194214;28;20156;-75
2022/05/18 13:38:20;;;;;;;0.80;0.80;;;32.10;76.40;;;;;;5179157;28;20033;-74
2022/05/18 13:40:58;;;;;;;1.42;0.90;;;30.50;77.20;;;;;;5194820;28;20216;-74
2022/05/18 13:43:33;;;;;;;0.70;0.70;;;29.20;82.20;;;;;;5195212;28;20013;-74
2022/05/18 13:46:20;;;;;;;1.40;0.60;;;30.40;79.80;;;;;;5195286;28;20060;-75
2022/05/18 13:49:01;;;;;;;0.82;0.70;;;32.50;78.90;;;;;;5193138;28;20035;-74
2022/05/18 13:51:41;;;;;;;1.08;0.80;;;31.60;75.80;;;;;;5192186;28;20033;-75
2022/05/18 13:54:16;;;;;;;0.65;0.65;;;31.10;75.00;;;;;;5212491;28;20034;-75
2022/05/18 13:56:52;;;;;;;0.73;0.70;;;32.00;74.30;;;;;;5269735;28;20040;-75
2022/05/18 13:59:27;;;;;;;1.33;0.77;;;31.90;74.50;;;;;;5276094;28;20015;-75
2022/05/18 14:02:02;;;;;;;0.68;0.68;;;31.10;75.80;;;;;;5256775;28;20045;-75
2022/05/18 14:04:42;;;;;;;0.82;0.77;;;32.10;73.20;;;;;;5269562;28;20077;-75
2022/05/18 14:07:13;;;;;;;0.60;0.60;;;30.20;76.30;;;;;;5264958;27;20046;-74
2022/05/18 14:09:45;;;;;;;0.65;0.65;;;28.90;76.60;;;;;;5286966;27;20481;-75
2022/05/18 14:12:21;;;;;;;0.70;0.70;;;28.40;77.10;;;;;;5261481;28;20028;-74